Cullison, Kansas
Current Conditions -  °F | °C
As of 11:55 AM on Wednesday 28 Jan 2015 (Local Time) from KPTT Reporting Station
Clear Clear  
Wind Chill: 59°   Ceiling: Unl
Heat Index: 59°   Visibility: 10mi
Dew Point: 34°   Wind: 10mph
Humidity: 39%   Direction: 290°WNW
Pressure: 29.89"   Gusts: NA
Location:  37.6668°N, 98.7106°W
Report Text: KPTT 281755Z AUTO 29009KT 10SM CLR 15/01 A2989 RMK AO2
Loading
Personal Weather Stations






























Interactive Weather Map New forecast layout! Learn more

10-Day Weather Forecast

Advertisements
Track Severe Weather on mobile